map of YTZ home
YTZ - Airport
Location
City:  Toronto, Ontario, Canada
Name:Billy Bishop Toronto City Airport
Old (Alt.):Toronto City Centre Airport
ICAO:CYTZ
IATA:YTZ

Details
Type:Airport (Airfield)
Use:Public/Civil
Latitude:4337'39"N (43.627500)
Longitude:7923'46"W (-79.396110)
Elevation:252 ft (77 m)
Variation:10.45W (WMM2015 magnetic declination)
0.01 annual change
Runways:3
Longest:3988 ft (1216 m), paved

Time
Time Zone:UTC-5 (DST-4)
Local Time:

Weather
METAR:CYTZ 221900Z AUTO 17006KT 9SM CLR 10/M03 A3041 RMK SLP300
TAF:CYTZ 221938Z 2220/2320 17006KT P6SM SKC
BECMG 2300/2302 03005KT
BECMG 2317/2319 06010KT
RMK FCST BASED ON AUTO OBS. NXT FCST BY 230200Z

Related Locations
Nearby:
Farthest:YAUG: 11427 mi / 18390 km
Augusta [Augusta Airport], WA, AU

Find:

   beyond  
but within

Other Information
Maps:
NOTAMs:
Links:
Sources:

  
flag of Canada
flag of Ontario
flag of Toronto
  

Airport Diagram

Airport diagram for YTZ

Airport diagram PDF

Sectional Chart

Flight Planning
at skyvector.com

Satellite Image

Google Maps Satellite view

 

Copyright © 2004-2018 Karl L. Swartz. All rights reserved.
The Great Circle Mapper name and logo are trademarks of the Great Circle Mapper.
All other trademarks mentioned herein belong to their respective owners.
Please see credits for attibutions and further copyright information.

  Follow gcmap on Facebook Follow gcmap on Twitter Follow gcmap on Google+ GCmap on LinkedIn

hCard Microformat

Geo Microformat